Time;durP1;ratioP1;P1;durP2;ratioP2;P2;SDS_P1;SDS_P2;PMS_P1;PMS_P2;Temp;Humidity;BMP_temperature;BMP_pressure;BME280_temperature;BME280_humidity;BME280_pressure;Samples;Min_cycle;Max_cycle;Signal;HPM_P1;HPM_P2
2022/01/16 00:00:26;;;;;;;184.25;86.80;;;;;;;-6.76;100.00;102183.91;5044006;28;20057;-80
2022/01/16 00:05:37;;;;;;;164.45;86.22;;;;;;;-6.72;100.00;102194.94;5036261;28;20052;-81
2022/01/16 00:08:06;;;;;;;165.73;89.30;;;;;;;-6.68;100.00;102194.78;5042502;28;20049;-81
2022/01/16 00:10:32;;;;;;;149.98;79.82;;;;;;;-7.11;100.00;102187.78;5038910;28;20053;-81
2022/01/16 00:13:00;;;;;;;134.93;71.13;;;;;;;-6.86;100.00;102194.66;5043165;28;20072;-80
2022/01/16 00:15:27;;;;;;;116.53;68.30;;;;;;;-6.53;100.00;102192.53;5044603;28;20131;-81
2022/01/16 00:17:56;;;;;;;116.30;71.13;;;;;;;-6.97;100.00;102188.13;5044210;28;20378;-81
2022/01/16 00:20:27;;;;;;;146.60;80.10;;;;;;;-7.03;100.00;102188.34;5042051;28;20054;-81
2022/01/16 00:22:54;;;;;;;139.43;81.35;;;;;;;-7.17;100.00;102188.88;5040919;28;20045;-80
2022/01/16 00:25:22;;;;;;;121.40;76.43;;;;;;;-7.03;100.00;102193.50;5046689;28;20107;-82
2022/01/16 00:27:50;;;;;;;70.30;58.90;;;;;;;-7.02;100.00;102208.13;5043239;28;20114;-81
2022/01/16 00:30:18;;;;;;;61.72;54.80;;;;;;;-7.15;100.00;102210.31;5046701;28;20118;-80
2022/01/16 00:32:45;;;;;;;76.25;60.10;;;;;;;-6.93;100.00;102215.53;5051688;28;20484;-80
2022/01/16 00:35:12;;;;;;;59.35;53.10;;;;;;;-7.17;100.00;102222.44;5045774;28;20057;-81
2022/01/16 00:37:40;;;;;;;57.83;51.53;;;;;;;-6.96;100.00;102251.81;5045764;28;20045;-80
2022/01/16 00:40:08;;;;;;;64.90;56.20;;;;;;;-7.03;100.00;102276.16;5046534;28;20050;-81
2022/01/16 00:42:37;;;;;;;60.03;54.53;;;;;;;-6.91;100.00;102298.16;5051790;28;20425;-80
2022/01/16 00:45:04;;;;;;;57.92;52.40;;;;;;;-7.02;100.00;102347.63;5045328;28;20049;-80
2022/01/16 00:47:31;;;;;;;59.45;53.60;;;;;;;-7.11;100.00;102273.00;5053319;28;20498;-81
2022/01/16 00:49:58;;;;;;;57.50;51.60;;;;;;;-7.25;100.00;102232.19;5046578;28;20493;-82
2022/01/16 00:52:24;;;;;;;62.72;56.00;;;;;;;-7.08;100.00;102226.44;5046755;28;20049;-81
2022/01/16 00:54:51;;;;;;;61.05;54.63;;;;;;;-7.10;100.00;102210.16;5050240;28;20082;-80
2022/01/16 00:57:18;;;;;;;72.40;62.55;;;;;;;-7.01;100.00;102106.50;5044980;28;20076;-80
2022/01/16 00:59:47;;;;;;;93.10;75.30;;;;;;;-6.68;100.00;102062.16;5053138;28;20061;-80
2022/01/16 01:02:14;;;;;;;69.63;61.15;;;;;;;-6.98;100.00;102108.13;5043654;28;20472;-80
2022/01/16 01:04:44;;;;;;;68.93;56.50;;;;;;;-7.11;100.00;102073.31;5042248;28;20057;-81
2022/01/16 01:07:11;;;;;;;74.65;64.15;;;;;;;-7.33;100.00;102099.94;5049245;28;20141;-81
2022/01/16 01:09:39;;;;;;;89.68;68.22;;;;;;;-7.45;100.00;102080.56;5044419;28;20055;-81
2022/01/16 01:12:07;;;;;;;113.18;69.50;;;;;;;-7.43;100.00;102081.38;5039533;28;20049;-80
2022/01/16 01:14:41;;;;;;;342.60;116.00;;;;;;;-7.43;100.00;102148.50;5043654;28;20050;-81
2022/01/16 01:17:13;;;;;;;179.73;80.20;;;;;;;-7.77;100.00;102164.31;5045819;28;20114;-80
2022/01/16 01:19:40;;;;;;;166.30;79.18;;;;;;;-7.30;100.00;102191.94;5044776;28;20080;-80
2022/01/16 01:22:07;;;;;;;187.20;86.43;;;;;;;-7.36;100.00;102159.44;5044686;28;20053;-81
2022/01/16 01:24:35;;;;;;;306.55;113.25;;;;;;;-7.24;100.00;102156.41;5047976;28;20119;-81
2022/01/16 01:27:09;;;;;;;359.40;122.43;;;;;;;-7.55;100.00;102192.81;5051172;28;20155;-81
2022/01/16 01:29:37;;;;;;;358.35;121.32;;;;;;;-7.38;100.00;102159.50;5047122;28;20122;-80
2022/01/16 01:32:04;;;;;;;330.08;117.80;;;;;;;-7.67;100.00;102146.78;5037467;28;20057;-80
2022/01/16 01:34:32;;;;;;;210.10;89.95;;;;;;;-7.59;100.00;102147.38;5049544;28;20366;-80
2022/01/16 01:36:59;;;;;;;200.80;88.07;;;;;;;-7.58;100.00;102151.63;5041282;28;20379;-81
2022/01/16 01:39:26;;;;;;;133.02;74.55;;;;;;;-7.79;100.00;102175.59;5043408;28;20064;-81
2022/01/16 01:42:03;;;;;;;149.07;78.30;;;;;;;-7.69;100.00;102169.19;5049559;28;20056;-79
2022/01/16 01:52:45;;;;;;;158.40;75.90;;;;;;;-7.72;100.00;102189.94;5046194;28;20524;-81
2022/01/16 01:55:12;;;;;;;159.48;78.80;;;;;;;-7.68;100.00;102215.63;5044385;28;20053;-81
2022/01/16 01:57:39;;;;;;;155.45;81.78;;;;;;;-7.62;100.00;102205.09;5040133;28;20140;-80
2022/01/16 02:00:08;;;;;;;166.35;79.80;;;;;;;-7.72;100.00;102192.53;5048706;28;20041;-80
2022/01/16 02:02:38;;;;;;;177.93;87.82;;;;;;;-7.72;100.00;102223.50;5045496;28;20106;-80
2022/01/16 02:05:07;;;;;;;185.30;87.68;;;;;;;-7.58;100.00;102205.81;5046334;28;20054;-80
2022/01/16 02:07:34;;;;;;;155.43;85.97;;;;;;;-7.76;100.00;102201.28;5053789;28;20118;-80
2022/01/16 02:10:01;;;;;;;130.75;74.85;;;;;;;-7.68;100.00;102202.72;5053105;28;20052;-80
2022/01/16 02:12:29;;;;;;;130.10;72.82;;;;;;;-7.58;100.00;102217.88;5044240;28;20046;-81
2022/01/16 02:15:03;;;;;;;114.18;67.82;;;;;;;-7.53;100.00;102214.25;5047963;28;20048;-81
2022/01/16 02:28:36;;;;;;;104.13;73.07;;;;;;;-7.83;100.00;102216.13;5019264;28;20428;-81
2022/01/16 02:31:17;;;;;;;96.05;66.95;;;;;;;-7.87;100.00;102212.78;5043871;28;20068;-81
2022/01/16 02:36:46;;;;;;;72.95;65.07;;;;;;;-8.03;100.00;102218.50;5024845;28;20071;-82
2022/01/16 02:39:16;;;;;;;80.65;69.88;;;;;;;-7.77;100.00;102217.66;5052076;28;20049;-81
2022/01/16 02:41:45;;;;;;;90.32;66.47;;;;;;;-7.96;100.00;102205.34;5048465;28;20052;-81
2022/01/16 02:44:19;;;;;;;93.38;65.78;;;;;;;-7.93;100.00;102212.97;5042047;28;20040;-80
2022/01/16 02:46:47;;;;;;;112.38;77.72;;;;;;;-7.65;100.00;102207.75;5040025;28;20052;-81
2022/01/16 02:49:21;;;;;;;94.45;70.72;;;;;;;-7.89;100.00;102199.13;5040406;28;20127;-80
2022/01/16 02:51:49;;;;;;;149.10;93.60;;;;;;;-7.83;100.00;102205.81;5041731;28;20053;-80
2022/01/16 02:54:17;;;;;;;158.18;90.53;;;;;;;-7.97;100.00;102216.56;5040521;28;20154;-81
2022/01/16 02:56:45;;;;;;;108.50;69.57;;;;;;;-8.14;100.00;102211.09;5035743;28;20068;-80
2022/01/16 02:59:13;;;;;;;106.13;70.72;;;;;;;-8.09;100.00;102217.81;5048521;28;20114;-81
2022/01/16 03:01:40;;;;;;;136.05;82.45;;;;;;;-8.03;100.00;102227.09;5139781;22;20053;-79
2022/01/16 03:04:08;;;;;;;122.18;81.93;;;;;;;-7.92;100.00;102219.84;5024858;28;20041;-79
2022/01/16 03:06:35;;;;;;;150.90;86.88;;;;;;;-7.95;100.00;102214.78;5022110;28;20049;-80
2022/01/16 03:09:05;;;;;;;130.80;81.13;;;;;;;-8.08;100.00;102210.91;5023611;28;20375;-81
2022/01/16 03:11:36;;;;;;;144.32;80.53;;;;;;;-8.11;100.00;102227.34;5028114;28;20054;-80
2022/01/16 03:14:04;;;;;;;130.45;77.35;;;;;;;-8.04;100.00;102227.97;5018344;28;20494;-79
2022/01/16 03:16:31;;;;;;;130.73;78.65;;;;;;;-7.99;100.00;102228.66;5022948;28;20057;-79
2022/01/16 03:21:54;;;;;;;209.27;105.78;;;;;;;-7.54;100.00;102232.34;5021017;28;20389;-80
2022/01/16 03:24:24;;;;;;;219.00;117.05;;;;;;;-7.69;100.00;102228.56;5021888;28;20057;-81
2022/01/16 03:26:54;;;;;;;197.30;104.18;;;;;;;-7.88;100.00;102225.75;5023534;28;20102;-80
2022/01/16 03:29:20;;;;;;;132.43;78.75;;;;;;;-7.48;100.00;102220.06;5024678;28;20045;-80
2022/01/16 03:31:47;;;;;;;147.73;86.70;;;;;;;-7.46;100.00;102220.03;5026783;28;20087;-81
2022/01/16 03:34:14;;;;;;;130.18;82.28;;;;;;;-7.67;100.00;102217.28;5026298;28;20053;-81
2022/01/16 03:36:41;;;;;;;107.50;71.15;;;;;;;-7.50;100.00;102227.06;5024719;28;20046;-80
2022/01/16 03:39:08;;;;;;;112.57;78.55;;;;;;;-7.68;100.00;102240.56;5023275;28;20053;-81
2022/01/16 03:41:35;;;;;;;92.32;68.97;;;;;;;-7.58;100.00;102226.47;5021844;28;20053;-80
2022/01/16 03:44:04;;;;;;;75.40;59.05;;;;;;;-7.62;100.00;102242.94;5022752;28;20052;-80
2022/01/16 03:46:34;;;;;;;77.88;61.53;;;;;;;-7.36;100.00;102229.13;5027959;28;20523;-80
2022/01/16 03:49:03;;;;;;;75.22;60.60;;;;;;;-7.14;100.00;102229.22;5021941;28;20050;-81
2022/01/16 03:51:30;;;;;;;79.55;65.43;;;;;;;-7.13;100.00;102232.66;5027174;28;20076;-81
2022/01/16 03:53:57;;;;;;;73.65;65.28;;;;;;;-7.32;100.00;102235.03;5021010;28;20054;-80
2022/01/16 03:56:24;;;;;;;78.07;68.22;;;;;;;-7.39;100.00;102230.09;5029105;28;20053;-80
2022/01/16 03:58:50;;;;;;;63.83;53.13;;;;;;;-7.38;100.00;102243.84;5021081;28;20049;-81
2022/01/16 04:01:19;;;;;;;65.13;53.55;;;;;;;-7.27;100.00;102249.47;5029331;28;20061;-81
2022/01/16 04:03:46;;;;;;;68.47;55.72;;;;;;;-7.25;100.00;102244.28;5029732;28;20057;-80
2022/01/16 04:06:13;;;;;;;63.67;54.08;;;;;;;-7.57;100.00;102245.34;5030313;28;20075;-80
2022/01/16 04:08:40;;;;;;;58.10;51.67;;;;;;;-7.67;100.00;102253.41;5032615;28;20536;-81
2022/01/16 04:11:07;;;;;;;60.13;52.22;;;;;;;-7.70;100.00;102255.25;5027871;28;20057;-80
2022/01/16 04:13:34;;;;;;;81.72;63.30;;;;;;;-7.99;100.00;102251.88;5029781;28;20053;-81
2022/01/16 04:16:01;;;;;;;100.57;75.22;;;;;;;-7.99;100.00;102256.19;5033296;28;20119;-80
2022/01/16 04:18:29;;;;;;;93.75;71.50;;;;;;;-8.11;100.00;102253.13;5032919;28;20107;-80
2022/01/16 04:20:57;;;;;;;90.25;71.50;;;;;;;-8.11;100.00;102265.16;5034734;28;20049;-80
2022/01/16 04:23:24;;;;;;;76.03;67.55;;;;;;;-7.57;100.00;102263.44;5033455;28;20053;-81
2022/01/16 04:25:50;;;;;;;78.25;61.78;;;;;;;-7.87;100.00;102273.84;5033767;28;20136;-81
2022/01/16 04:28:23;;;;;;;67.78;58.25;;;;;;;-7.41;100.00;102259.44;5034657;28;20050;-80
2022/01/16 04:30:49;;;;;;;67.60;57.47;;;;;;;-7.39;100.00;102266.22;5033892;28;20049;-80
2022/01/16 04:33:16;;;;;;;71.50;56.90;;;;;;;-7.20;100.00;102261.28;5030625;28;20054;-80
2022/01/16 04:35:44;;;;;;;88.10;62.97;;;;;;;-7.32;100.00;102271.19;5034348;28;20394;-81
2022/01/16 04:38:11;;;;;;;80.55;66.40;;;;;;;-7.43;100.00;102274.97;5032997;28;20462;-81
2022/01/16 04:40:44;;;;;;;80.72;65.25;;;;;;;-7.58;100.00;102265.16;5034679;28;20497;-81
2022/01/16 04:45:59;;;;;;;73.53;60.25;;;;;;;-7.82;100.00;102278.88;5030730;28;20180;-80
2022/01/16 04:48:26;;;;;;;83.22;68.45;;;;;;;-7.61;100.00;102280.75;5031180;28;20053;-79
2022/01/16 04:50:54;;;;;;;83.40;69.15;;;;;;;-7.69;100.00;102278.41;5032726;28;20111;-80
2022/01/16 04:53:21;;;;;;;88.32;66.78;;;;;;;-7.65;100.00;102274.84;5031051;28;20054;-81
2022/01/16 04:55:48;;;;;;;83.82;63.50;;;;;;;-7.46;100.00;102276.81;5035908;28;20103;-79
2022/01/16 04:58:15;;;;;;;101.65;65.50;;;;;;;-7.86;100.00;102276.41;5030366;28;20064;-80
2022/01/16 05:00:42;;;;;;;75.10;58.65;;;;;;;-7.93;100.00;102282.63;5030514;28;20053;-80
2022/01/16 05:03:09;;;;;;;66.57;54.25;;;;;;;-8.06;100.00;102277.00;5031984;28;20058;-80
2022/01/16 05:05:36;;;;;;;69.55;59.45;;;;;;;-7.94;100.00;102275.78;5029371;28;20046;-81
2022/01/16 05:08:04;;;;;;;61.60;52.50;;;;;;;-7.75;100.00;102277.78;5034829;28;20049;-80
2022/01/16 05:10:31;;;;;;;61.90;52.97;;;;;;;-7.41;100.00;102278.38;5032018;28;20119;-82
2022/01/16 05:13:15;;;;;;;71.13;59.83;;;;;;;-7.46;100.00;102285.41;5033448;28;20057;-81
2022/01/16 05:18:26;;;;;;;60.08;53.78;;;;;;;-7.49;100.00;102297.56;5024143;28;20159;-80
2022/01/16 05:20:53;;;;;;;60.88;54.03;;;;;;;-7.81;100.00;102291.72;5032406;28;20111;-80
2022/01/16 05:23:21;;;;;;;61.38;54.55;;;;;;;-7.86;100.00;102291.03;5031968;28;20139;-80
2022/01/16 05:25:48;;;;;;;68.75;56.55;;;;;;;-8.07;100.00;102285.66;5024080;28;20041;-80
2022/01/16 05:28:14;;;;;;;83.93;69.50;;;;;;;-7.94;100.00;102277.53;5033367;28;20062;-80
2022/01/16 05:30:41;;;;;;;79.95;64.40;;;;;;;-8.11;100.00;102280.63;5032148;28;20114;-80
2022/01/16 05:33:08;;;;;;;81.53;62.58;;;;;;;-8.26;100.00;102266.47;5029588;28;20104;-80
2022/01/16 05:35:36;;;;;;;71.78;59.80;;;;;;;-8.49;100.00;102264.63;5024352;28;20111;-81
2022/01/16 05:38:03;;;;;;;91.35;66.95;;;;;;;-8.27;100.00;102272.53;5031848;28;20057;-79
2022/01/16 05:40:31;;;;;;;72.80;63.60;;;;;;;-8.20;100.00;102271.47;5032131;28;20053;-80
2022/01/16 05:42:58;;;;;;;75.65;63.50;;;;;;;-8.15;100.00;102274.72;5031294;28;20186;-80
2022/01/16 05:45:25;;;;;;;75.53;62.75;;;;;;;-8.18;100.00;102277.41;5033559;28;20049;-80
2022/01/16 05:47:52;;;;;;;81.05;65.25;;;;;;;-8.22;100.00;102293.03;5033071;28;20123;-80
2022/01/16 05:50:19;;;;;;;80.22;63.35;;;;;;;-8.39;100.00;102289.22;5029185;28;20494;-79
2022/01/16 05:52:46;;;;;;;88.75;69.32;;;;;;;-8.26;100.00;102294.81;5032330;28;20115;-79
2022/01/16 05:55:13;;;;;;;94.97;71.03;;;;;;;-8.30;100.00;102288.91;5034668;28;20476;-80
2022/01/16 05:57:41;;;;;;;90.28;69.43;;;;;;;-8.43;100.00;102295.38;5030274;28;20038;-79
2022/01/16 06:00:10;;;;;;;116.25;77.95;;;;;;;-8.31;100.00;102292.41;5032603;28;20049;-80
2022/01/16 06:02:37;;;;;;;115.82;74.03;;;;;;;-8.34;100.00;102299.38;5029666;28;20568;-80
2022/01/16 06:05:05;;;;;;;96.45;67.80;;;;;;;-8.17;100.00;102296.28;5029461;28;20041;-80
2022/01/16 06:07:32;;;;;;;90.22;67.07;;;;;;;-8.10;100.00;102308.97;5032321;28;20131;-80
2022/01/16 06:09:59;;;;;;;114.13;84.25;;;;;;;-8.12;100.00;102315.03;5030698;28;20444;-80
2022/01/16 06:12:26;;;;;;;128.10;89.00;;;;;;;-7.87;100.00;102320.28;5029749;28;20430;-81
2022/01/16 06:14:54;;;;;;;85.03;64.20;;;;;;;-7.29;100.00;102325.28;5032668;28;20057;-81
2022/01/16 06:17:21;;;;;;;95.30;70.55;;;;;;;-7.78;100.00;102309.66;5032305;28;20134;-79
2022/01/16 06:19:47;;;;;;;103.72;75.55;;;;;;;-7.10;100.00;102323.78;5033043;28;20111;-80
2022/01/16 06:22:14;;;;;;;109.03;74.47;;;;;;;-6.82;100.00;102317.66;5031372;28;20061;-81
2022/01/16 06:24:41;;;;;;;99.85;68.78;;;;;;;-6.54;100.00;102323.50;5029158;28;20050;-81
2022/01/16 06:27:08;;;;;;;67.20;54.90;;;;;;;-6.01;100.00;102324.97;5028324;28;20053;-80
2022/01/16 06:29:34;;;;;;;93.88;68.20;;;;;;;-5.48;100.00;102332.31;5029282;28;20375;-81
2022/01/16 06:32:03;;;;;;;92.57;66.32;;;;;;;-5.15;100.00;102326.63;5033673;28;20057;-79
2022/01/16 06:34:29;;;;;;;102.72;67.07;;;;;;;-4.69;100.00;102332.41;5027924;28;20115;-80
2022/01/16 06:36:57;;;;;;;99.57;65.43;;;;;;;-4.28;100.00;102332.31;5032124;28;20057;-79
2022/01/16 06:39:24;;;;;;;97.35;65.50;;;;;;;-3.87;100.00;102333.00;5029600;28;20132;-80
2022/01/16 06:41:50;;;;;;;84.15;66.20;;;;;;;-3.78;100.00;102348.13;5027594;28;20513;-81
2022/01/16 06:44:17;;;;;;;78.07;63.70;;;;;;;-3.56;100.00;102355.72;5032952;28;20555;-80
2022/01/16 06:46:44;;;;;;;69.28;61.00;;;;;;;-3.52;100.00;102353.81;5034278;28;20188;-80
2022/01/16 06:49:12;;;;;;;71.78;61.47;;;;;;;-3.06;100.00;102356.72;5024583;28;20045;-79
2022/01/16 06:51:39;;;;;;;72.80;61.03;;;;;;;-2.53;100.00;102351.38;5028524;28;20045;-80
2022/01/16 06:54:06;;;;;;;96.40;75.93;;;;;;;-2.34;100.00;102356.44;5026788;28;20056;-80
2022/01/16 06:56:33;;;;;;;83.32;63.80;;;;;;;-2.17;100.00;102352.09;5032500;28;20045;-80
2022/01/16 06:59:00;;;;;;;85.32;63.90;;;;;;;-2.69;100.00;102360.91;5027268;28;20844;-81
2022/01/16 07:01:27;;;;;;;75.97;62.03;;;;;;;-2.45;100.00;102345.78;5028502;28;20054;-81
2022/01/16 07:03:54;;;;;;;82.90;67.65;;;;;;;-1.74;100.00;102345.34;5024429;28;20099;-80
2022/01/16 07:06:23;;;;;;;84.68;65.65;;;;;;;-2.23;100.00;102340.25;5028963;28;20052;-81
2022/01/16 07:08:50;;;;;;;86.68;66.35;;;;;;;-1.87;100.00;102339.16;5032725;28;20053;-81
2022/01/16 07:11:17;;;;;;;87.05;70.07;;;;;;;-1.60;100.00;102341.97;5029869;28;20099;-80
2022/01/16 07:13:43;;;;;;;76.97;66.18;;;;;;;-1.09;100.00;102346.84;5027883;28;20045;-80
2022/01/16 07:16:10;;;;;;;81.50;71.28;;;;;;;-1.49;100.00;102357.00;4941359;28;20418;-80
2022/01/16 07:18:37;;;;;;;71.80;64.13;;;;;;;-1.04;100.00;102356.09;5038709;28;20119;-81
2022/01/16 07:21:05;;;;;;;66.53;59.35;;;;;;;-0.98;100.00;102353.13;5028718;28;20046;-80
2022/01/16 07:23:33;;;;;;;79.47;71.10;;;;;;;0.04;100.00;102360.84;5025573;28;20049;-83
2022/01/16 07:26:00;;;;;;;71.88;64.78;;;;;;;0.30;100.00;102361.75;5031098;28;20060;-80
2022/01/16 07:28:26;;;;;;;72.57;65.45;;;;;;;0.87;100.00;102361.50;5024723;28;20061;-79
2022/01/16 07:30:53;;;;;;;64.82;59.03;;;;;;;1.23;100.00;102364.38;5025996;28;20122;-81
2022/01/16 07:33:20;;;;;;;65.60;59.60;;;;;;;1.29;100.00;102363.94;5029843;28;20479;-80
2022/01/16 07:35:47;;;;;;;74.03;66.38;;;;;;;0.94;100.00;102353.22;5029543;28;20041;-79
2022/01/16 07:38:13;;;;;;;70.25;63.10;;;;;;;1.16;100.00;102357.88;5026159;28;20049;-81
2022/01/16 07:40:41;;;;;;;74.15;66.25;;;;;;;1.35;100.00;102350.44;5032369;28;20045;-80
2022/01/16 07:43:08;;;;;;;64.00;58.00;;;;;;;1.98;100.00;102343.41;5030473;28;20131;-80
2022/01/16 07:45:37;;;;;;;66.13;60.08;;;;;;;1.95;100.00;102348.84;5033212;28;20127;-80
2022/01/16 07:48:05;;;;;;;62.05;55.97;;;;;;;1.23;100.00;102352.09;5035871;28;20165;-80
2022/01/16 07:50:32;;;;;;;60.70;55.28;;;;;;;1.07;100.00;102361.97;5032538;28;20049;-79
2022/01/16 07:52:59;;;;;;;58.00;52.83;;;;;;;1.10;100.00;102357.34;5036013;28;20107;-79
2022/01/16 07:55:26;;;;;;;60.65;55.20;;;;;;;2.17;100.00;102361.25;5031622;28;20123;-80
2022/01/16 07:57:55;;;;;;;59.30;54.08;;;;;;;1.63;100.00;102354.56;5035811;28;20111;-80
2022/01/16 08:00:22;;;;;;;64.82;58.60;;;;;;;1.16;100.00;102363.94;5032189;28;20111;-80
2022/01/16 08:02:50;;;;;;;61.47;55.78;;;;;;;2.21;100.00;102355.69;5031611;28;20053;-80
2022/01/16 08:05:17;;;;;;;61.80;56.00;;;;;;;2.69;100.00;102354.78;5032809;28;20054;-79
2022/01/16 08:07:44;;;;;;;60.22;54.90;;;;;;;2.49;100.00;102353.66;5037731;28;20050;-80
2022/01/16 08:10:11;;;;;;;61.28;55.55;;;;;;;3.73;100.00;102367.00;5035587;28;20118;-80
2022/01/16 08:12:38;;;;;;;65.70;59.22;;;;;;;3.28;100.00;102372.25;5032953;28;20120;-81
2022/01/16 08:15:08;;;;;;;66.15;59.78;;;;;;;4.52;100.00;102360.59;5033422;28;20072;-79
2022/01/16 08:17:36;;;;;;;61.72;56.10;;;;;;;3.22;100.00;102363.03;5036170;28;20383;-79
2022/01/16 08:20:04;;;;;;;61.97;56.30;;;;;;;4.12;100.00;102355.94;5034523;28;20490;-80
2022/01/16 08:22:31;;;;;;;61.10;55.65;;;;;;;4.32;100.00;102353.47;5028069;28;20124;-80
2022/01/16 08:24:58;;;;;;;69.05;61.65;;;;;;;5.62;100.00;102339.03;5033766;28;20053;-79
2022/01/16 08:27:25;;;;;;;64.25;58.38;;;;;;;3.73;100.00;102319.69;5033595;28;20118;-79
2022/01/16 08:29:52;;;;;;;67.57;61.42;;;;;;;5.68;100.00;102323.50;5033127;28;20058;-79
2022/01/16 08:32:21;;;;;;;62.08;56.65;;;;;;;5.09;100.00;102340.06;5035985;28;20041;-79
2022/01/16 08:34:47;;;;;;;63.72;57.83;;;;;;;6.27;100.00;102336.84;5033380;28;20050;-79
2022/01/16 08:37:14;;;;;;;65.80;59.90;;;;;;;5.97;100.00;102335.97;5023978;28;20119;-81
2022/01/16 08:39:41;;;;;;;58.83;53.50;;;;;;;7.08;100.00;102332.84;5035376;28;20416;-79
2022/01/16 08:42:08;;;;;;;60.83;55.45;;;;;;;7.00;100.00;102327.44;5037611;28;20531;-80
2022/01/16 08:44:35;;;;;;;65.75;59.58;;;;;;;5.40;100.00;102325.06;5035905;28;20378;-79
2022/01/16 08:47:02;;;;;;;62.90;57.35;;;;;;;6.87;100.00;102327.75;5037981;28;20037;-79
2022/01/16 08:49:30;;;;;;;64.10;58.35;;;;;;;7.28;100.00;102317.75;5037442;28;20081;-80
2022/01/16 08:51:58;;;;;;;59.75;54.88;;;;;;;6.16;100.00;102311.41;5032332;28;20115;-79
2022/01/16 08:54:24;;;;;;;59.75;54.97;;;;;;;5.49;100.00;102300.56;5030939;28;20059;-80
2022/01/16 08:56:51;;;;;;;62.15;56.78;;;;;;;4.54;100.00;102303.41;5030115;28;20104;-79
2022/01/16 08:59:19;;;;;;;58.13;53.13;;;;;;;6.59;100.00;102313.59;5026246;28;20493;-79
2022/01/16 09:01:46;;;;;;;59.33;54.60;;;;;;;4.88;100.00;102302.38;5035304;28;20119;-80
2022/01/16 09:04:13;;;;;;;65.78;59.95;;;;;;;6.63;100.00;102304.44;5034958;28;20115;-79
2022/01/16 09:06:41;;;;;;;69.93;63.33;;;;;;;7.88;100.00;102292.69;5035810;28;20041;-80
2022/01/16 09:09:08;;;;;;;61.83;56.70;;;;;;;6.03;100.00;102295.03;5028409;28;20489;-80
2022/01/16 09:11:35;;;;;;;60.58;55.42;;;;;;;6.16;100.00;102298.22;5026311;28;20485;-79
2022/01/16 09:14:01;;;;;;;62.65;57.10;;;;;;;7.70;100.00;102297.94;5035811;28;20052;-79
2022/01/16 09:16:30;;;;;;;62.40;57.13;;;;;;;6.76;100.00;102300.69;5035296;28;20548;-80
2022/01/16 09:18:57;;;;;;;63.00;57.38;;;;;;;6.91;100.00;102272.84;5034401;28;20465;-80
2022/01/16 09:21:24;;;;;;;65.45;59.60;;;;;;;7.48;100.00;102278.84;5027403;28;20112;-79
2022/01/16 09:23:52;;;;;;;66.72;60.40;;;;;;;7.76;100.00;102276.19;5034206;28;20060;-79
2022/01/16 09:26:19;;;;;;;63.20;58.22;;;;;;;6.72;100.00;102283.44;5032098;28;20548;-79
2022/01/16 09:28:47;;;;;;;60.13;55.20;;;;;;;6.62;100.00;102284.28;5035378;28;20053;-80
2022/01/16 09:31:14;;;;;;;61.55;56.65;;;;;;;5.99;100.00;102283.06;5031617;28;20046;-79
2022/01/16 09:33:40;;;;;;;71.30;64.65;;;;;;;6.77;100.00;102283.84;5030833;28;20562;-80
2022/01/16 09:36:09;;;;;;;60.67;55.78;;;;;;;6.31;100.00;102275.72;5029623;28;20473;-80
2022/01/16 09:38:36;;;;;;;65.32;59.08;;;;;;;6.91;100.00;102272.84;5031447;28;20489;-79
2022/01/16 09:41:05;;;;;;;75.38;67.43;;;;;;;6.97;100.00;102266.97;5030728;28;20133;-79
2022/01/16 09:43:33;;;;;;;58.15;53.88;;;;;;;5.19;100.00;102269.81;5031009;28;20084;-79
2022/01/16 09:46:00;;;;;;;66.63;60.47;;;;;;;7.32;100.00;102266.28;5030120;28;20085;-79
2022/01/16 09:48:26;;;;;;;103.60;73.97;;;;;;;7.86;100.00;102269.00;5027634;28;20062;-79
2022/01/16 09:50:53;;;;;;;59.80;55.00;;;;;;;6.31;100.00;102266.97;5032141;28;20076;-79
2022/01/16 09:53:22;;;;;;;59.50;54.85;;;;;;;6.86;100.00;102264.50;5033826;28;20049;-79
2022/01/16 09:55:49;;;;;;;60.88;55.88;;;;;;;7.17;100.00;102257.19;5033083;28;20057;-79
2022/01/16 09:58:17;;;;;;;62.03;57.17;;;;;;;8.07;100.00;102268.72;5030209;28;20135;-79
2022/01/16 10:00:44;;;;;;;58.58;53.97;;;;;;;6.32;100.00;102260.72;5034793;28;20053;-78
2022/01/16 10:03:11;;;;;;;59.75;54.75;;;;;;;7.93;100.00;102261.31;5032214;28;20057;-80
2022/01/16 10:05:40;;;;;;;133.20;87.30;;;;;;;9.34;100.00;102250.50;5035171;28;20458;-80
2022/01/16 10:08:09;;;;;;;68.38;62.60;;;;;;;9.80;100.00;102255.44;5037412;28;20045;-80
2022/01/16 10:10:38;;;;;;;73.63;66.18;;;;;;;9.44;100.00;102257.50;5030322;28;20114;-79
2022/01/16 10:13:21;;;;;;;62.55;57.33;;;;;;;9.93;100.00;102249.69;4964109;28;20041;-78
2022/01/16 10:15:53;;;;;;;62.03;57.10;;;;;;;7.24;100.00;102252.97;5028168;28;20109;-80
2022/01/16 10:18:33;;;;;;;60.95;56.05;;;;;;;8.30;100.00;102255.84;5029762;28;20050;-79
2022/01/16 10:21:00;;;;;;;64.95;59.78;;;;;;;8.63;100.00;102250.84;5029497;28;20543;-80
2022/01/16 10:23:28;;;;;;;63.92;58.83;;;;;;;9.27;100.00;102241.53;5032405;28;20053;-79
2022/01/16 10:25:55;;;;;;;58.63;53.88;;;;;;;5.40;100.00;102246.03;5032351;28;20100;-79
2022/01/16 10:28:25;;;;;;;59.55;54.83;;;;;;;6.14;100.00;102239.47;5032824;28;20053;-80
2022/01/16 10:30:54;;;;;;;61.20;56.47;;;;;;;9.14;100.00;102235.88;5031793;28;20199;-79
2022/01/16 10:33:23;;;;;;;61.58;56.58;;;;;;;8.18;100.00;102238.53;5033738;28;20050;-80
2022/01/16 10:35:52;;;;;;;63.33;57.58;;;;;;;10.76;96.85;102228.22;5032077;28;20111;-79
2022/01/16 10:38:21;;;;;;;63.85;58.97;;;;;;;8.51;98.80;102213.19;5030411;28;20049;-80
2022/01/16 10:40:50;;;;;;;62.30;57.10;;;;;;;8.06;100.00;102224.72;5025222;28;20045;-80
2022/01/16 10:43:19;;;;;;;62.25;57.42;;;;;;;9.10;100.00;102221.25;5031534;28;20054;-81
2022/01/16 10:45:51;;;;;;;60.38;55.53;;;;;;;6.67;100.00;102211.75;5030864;28;20115;-78
2022/01/16 10:48:24;;;;;;;58.75;54.22;;;;;;;6.61;100.00;102218.44;5028592;28;20137;-81
2022/01/16 10:50:51;;;;;;;59.38;54.92;;;;;;;6.85;100.00;102205.56;5032398;28;20132;-79
2022/01/16 10:53:19;;;;;;;60.42;55.42;;;;;;;6.44;100.00;102206.78;5029542;28;20058;-79
2022/01/16 10:55:47;;;;;;;61.88;56.90;;;;;;;9.56;100.00;102198.72;5034180;28;20041;-80
2022/01/16 10:58:20;;;;;;;65.10;60.10;;;;;;;10.13;99.26;102202.38;5030930;28;20062;-81
2022/01/16 11:00:52;;;;;;;68.07;62.90;;;;;;;7.32;100.00;102196.72;5028756;28;20045;-80
2022/01/16 11:03:19;;;;;;;61.78;57.13;;;;;;;7.69;100.00;102193.16;5028511;28;20054;-80
2022/01/16 11:05:47;;;;;;;63.55;58.83;;;;;;;7.70;100.00;102192.16;5031708;28;20470;-80
2022/01/16 11:08:16;;;;;;;62.47;57.83;;;;;;;9.05;99.09;102197.06;5034483;28;20437;-81
2022/01/16 11:10:45;;;;;;;61.85;57.17;;;;;;;7.75;100.00;102185.44;5028417;28;20053;-80
2022/01/16 11:13:13;;;;;;;62.55;58.08;;;;;;;8.60;100.00;102182.28;5027567;28;20041;-79
2022/01/16 11:15:42;;;;;;;61.15;56.88;;;;;;;7.57;100.00;102184.59;5027891;28;20061;-80
2022/01/16 11:18:11;;;;;;;62.75;57.85;;;;;;;7.48;100.00;102182.84;5027822;28;20134;-80
2022/01/16 11:20:39;;;;;;;62.47;57.58;;;;;;;7.28;100.00;102184.78;5029739;28;20119;-78
2022/01/16 11:23:15;;;;;;;65.35;60.45;;;;;;;8.11;100.00;102182.75;5029537;28;20107;-80
2022/01/16 11:25:43;;;;;;;62.63;58.30;;;;;;;7.92;100.00;102175.81;5013023;28;20045;-79
2022/01/16 11:28:13;;;;;;;60.92;56.13;;;;;;;7.32;100.00;102171.13;5029385;28;20062;-80
2022/01/16 11:30:42;;;;;;;62.67;57.78;;;;;;;7.31;100.00;102169.44;5025424;28;20053;-80
2022/01/16 11:33:11;;;;;;;64.63;59.90;;;;;;;8.47;100.00;102164.16;5024877;28;20049;-83
2022/01/16 11:35:45;;;;;;;63.00;58.10;;;;;;;8.81;100.00;102163.34;5026475;28;20049;-80
2022/01/16 11:38:13;;;;;;;64.38;59.58;;;;;;;9.30;100.00;102160.84;5024575;28;20045;-79